Time;durP1;ratioP1;P1;durP2;ratioP2;P2;SDS_P1;SDS_P2;PMS_P1;PMS_P2;Temp;Humidity;BMP_temperature;BMP_pressure;BME280_temperature;BME280_humidity;BME280_pressure;Samples;Min_cycle;Max_cycle;Signal;HPM_P1;HPM_P2
2023/06/20 00:01:50;;;;;;;0.93;0.93;;;20.60;99.90;;;;;;5038844;28;21188;-71
2023/06/20 00:04:20;;;;;;;0.88;0.88;;;20.30;99.90;;;;;;5041601;28;20436;-72
2023/06/20 00:06:46;;;;;;;1.42;1.33;;;20.00;99.90;;;;;;5041118;28;20480;-71
2023/06/20 00:09:13;;;;;;;2.10;1.03;;;19.70;99.90;;;;;;5034878;28;20433;-72
2023/06/20 00:11:40;;;;;;;1.20;1.10;;;19.50;99.90;;;;;;5040803;28;20931;-72
2023/06/20 00:14:07;;;;;;;1.10;1.00;;;19.40;99.90;;;;;;5035185;28;20964;-72
2023/06/20 00:16:34;;;;;;;0.90;0.90;;;19.30;99.90;;;;;;5036665;28;20560;-72
2023/06/20 00:19:02;;;;;;;3.08;0.88;;;19.10;99.90;;;;;;5038363;28;20480;-72
2023/06/20 00:21:32;;;;;;;1.20;1.20;;;19.10;99.90;;;;;;5043123;28;20453;-72
2023/06/20 00:23:59;;;;;;;3.35;1.27;;;19.00;99.90;;;;;;5039038;28;20512;-72
2023/06/20 00:26:25;;;;;;;1.35;1.25;;;18.90;99.90;;;;;;5036011;28;22874;-72
2023/06/20 00:28:53;;;;;;;1.70;1.23;;;18.90;99.90;;;;;;5038234;28;20439;-72
2023/06/20 00:31:20;;;;;;;0.85;0.85;;;18.80;99.90;;;;;;5040904;28;20437;-72
2023/06/20 00:33:47;;;;;;;1.02;0.98;;;18.80;99.90;;;;;;5039069;28;20928;-72
2023/06/20 00:36:13;;;;;;;1.23;1.23;;;18.80;99.90;;;;;;5040367;28;20441;-72
2023/06/20 00:38:40;;;;;;;1.88;1.08;;;18.80;99.90;;;;;;5039485;28;20529;-72
2023/06/20 00:41:07;;;;;;;2.05;1.38;;;18.90;99.90;;;;;;5038479;28;20805;-72
2023/06/20 00:43:34;;;;;;;1.35;1.25;;;18.90;99.90;;;;;;5039369;28;20875;-72
2023/06/20 00:46:00;;;;;;;0.80;0.80;;;18.90;99.90;;;;;;5040563;28;20975;-72
2023/06/20 00:48:27;;;;;;;1.52;1.02;;;18.90;99.90;;;;;;5038379;28;20492;-72
2023/06/20 00:50:54;;;;;;;1.17;1.08;;;18.90;99.90;;;;;;5040970;28;20520;-72
2023/06/20 00:53:21;;;;;;;1.08;1.05;;;18.90;99.90;;;;;;5042022;28;20433;-72
2023/06/20 00:55:49;;;;;;;1.92;1.65;;;19.00;99.90;;;;;;5068916;28;20951;-72
2023/06/20 00:58:16;;;;;;;1.30;1.20;;;19.00;99.90;;;;;;5063522;28;20433;-72
2023/06/20 01:00:42;;;;;;;1.20;1.20;;;19.00;99.90;;;;;;5038135;28;20487;-72
2023/06/20 01:03:14;;;;;;;1.48;1.38;;;19.00;99.90;;;;;;5042647;28;20420;-72
2023/06/20 01:05:45;;;;;;;1.48;1.25;;;19.00;99.90;;;;;;5039820;28;20439;-73
2023/06/20 01:08:22;;;;;;;1.27;1.27;;;19.10;99.90;;;;;;5070163;28;20963;-73
2023/06/20 01:11:03;;;;;;;1.08;1.08;;;19.00;99.90;;;;;;5039268;28;20425;-72
2023/06/20 01:13:58;;;;;;;0.90;0.90;;;19.00;99.90;;;;;;5034954;28;20555;-72
2023/06/20 01:16:42;;;;;;;0.90;0.90;;;19.00;99.90;;;;;;5039855;28;20483;-73
2023/06/20 01:19:43;;;;;;;1.50;0.90;;;19.10;99.90;;;;;;5037756;28;20425;-73
2023/06/20 01:22:18;;;;;;;1.08;1.08;;;19.10;99.90;;;;;;5036514;28;20435;-73
2023/06/20 01:24:51;;;;;;;1.83;1.55;;;19.10;99.90;;;;;;5036730;28;20459;-72
2023/06/20 01:27:25;;;;;;;1.08;1.08;;;19.10;99.90;;;;;;5071674;28;20506;-72
2023/06/20 01:30:20;;;;;;;1.35;1.25;;;19.00;99.90;;;;;;5036539;28;20464;-72
2023/06/20 01:32:50;;;;;;;1.10;1.10;;;19.00;99.90;;;;;;5041957;28;20523;-72
2023/06/20 01:35:22;;;;;;;0.95;0.90;;;18.90;99.90;;;;;;5039987;28;20441;-72
2023/06/20 01:37:55;;;;;;;1.00;1.00;;;18.90;99.90;;;;;;5036928;28;21063;-72
2023/06/20 01:40:23;;;;;;;1.60;1.50;;;18.80;99.90;;;;;;5039121;28;20475;-72
2023/06/20 01:42:58;;;;;;;1.30;1.20;;;18.70;99.90;;;;;;5030013;28;20457;-73
2023/06/20 01:45:30;;;;;;;2.10;1.80;;;18.70;99.90;;;;;;5039645;28;20490;-72
2023/06/20 01:48:00;;;;;;;1.45;1.35;;;18.70;99.90;;;;;;5042726;28;20433;-72
2023/06/20 01:50:29;;;;;;;1.45;1.35;;;18.70;99.90;;;;;;5043544;28;20524;-72
2023/06/20 01:52:57;;;;;;;1.60;1.50;;;18.70;99.90;;;;;;5043044;28;20461;-72
2023/06/20 01:55:25;;;;;;;1.35;1.35;;;18.70;99.90;;;;;;5040268;28;20865;-72
2023/06/20 01:57:56;;;;;;;0.88;0.88;;;18.80;99.90;;;;;;5040650;28;20489;-72
2023/06/20 02:00:24;;;;;;;839.00;713.13;;;18.80;99.90;;;;;;5037524;28;20439;-72
2023/06/20 02:02:56;;;;;;;781.17;700.97;;;18.80;99.90;;;;;;5043220;28;20443;-72
2023/06/20 02:05:30;;;;;;;792.53;657.67;;;18.90;99.90;;;;;;5043354;28;20425;-72
2023/06/20 02:07:58;;;;;;;777.22;608.13;;;18.90;99.90;;;;;;5041670;28;20429;-73
2023/06/20 02:10:27;;;;;;;749.53;602.60;;;18.90;99.90;;;;;;5043028;28;20444;-72
2023/06/20 02:12:57;;;;;;;793.08;625.63;;;19.00;99.90;;;;;;5045452;28;20429;-72
2023/06/20 02:15:26;;;;;;;766.08;599.33;;;19.00;99.90;;;;;;5044215;28;20440;-72
2023/06/20 02:17:54;;;;;;;782.33;619.80;;;19.00;99.90;;;;;;5041997;28;20469;-72
2023/06/20 02:20:21;;;;;;;781.17;628.28;;;19.00;99.90;;;;;;5042856;28;20512;-72
2023/06/20 02:22:55;;;;;;;793.10;637.67;;;19.10;99.90;;;;;;5044945;28;20524;-72
2023/06/20 02:25:26;;;;;;;759.28;665.85;;;19.10;99.90;;;;;;5044734;28;20824;-72
2023/06/20 02:27:55;;;;;;;752.30;607.73;;;19.10;99.90;;;;;;5040235;28;20515;-72
2023/06/20 02:30:28;;;;;;;741.13;597.55;;;19.10;99.90;;;;;;5040040;28;20433;-72
2023/06/20 02:32:57;;;;;;;734.58;597.53;;;19.10;99.90;;;;;;5037653;28;20441;-72
2023/06/20 02:35:25;;;;;;;742.05;611.92;;;19.00;99.90;;;;;;5039433;28;21647;-72
2023/06/20 02:37:56;;;;;;;745.00;603.50;;;19.00;99.90;;;;;;5042680;28;20495;-72
2023/06/20 02:40:26;;;;;;;737.78;600.85;;;19.00;99.90;;;;;;5072025;28;20453;-71
2023/06/20 02:42:53;;;;;;;738.45;611.63;;;18.90;99.90;;;;;;5040312;28;20425;-72
2023/06/20 02:45:19;;;;;;;677.85;606.10;;;18.90;99.90;;;;;;5040137;28;20563;-72
2023/06/20 02:48:41;;;;;;;707.30;591.93;;;18.90;99.90;;;;;;5071097;28;20436;-72
2023/06/20 02:51:15;;;;;;;673.38;555.47;;;18.90;99.90;;;;;;5016538;28;20427;-72
2023/06/20 02:54:10;;;;;;;642.30;583.10;;;18.90;99.90;;;;;;5036510;28;20484;-73
2023/06/20 02:56:38;;;;;;;466.70;427.20;;;18.90;99.90;;;;;;5041671;28;21056;-72
2023/06/20 02:59:10;;;;;;;672.33;601.08;;;18.90;99.90;;;;;;5039928;28;20429;-72
2023/06/20 03:01:39;;;;;;;371.05;341.65;;;18.90;99.90;;;;;;5040025;28;20425;-71
2023/06/20 03:04:07;;;;;;;641.28;581.63;;;18.80;99.90;;;;;;5034299;28;20426;-71
2023/06/20 03:06:37;;;;;;;287.58;265.08;;;18.70;99.90;;;;;;5039429;28;20519;-71
2023/06/20 03:09:05;;;;;;;598.85;548.58;;;18.70;99.90;;;;;;5041031;28;20491;-71
2023/06/20 03:11:32;;;;;;;275.25;254.20;;;18.70;99.90;;;;;;5041862;28;21184;-71
2023/06/20 03:13:58;;;;;;;413.63;380.13;;;18.70;99.90;;;;;;5040408;28;20441;-72
2023/06/20 03:16:26;;;;;;;93.63;87.93;;;18.80;99.90;;;;;;5044123;28;20512;-71
2023/06/20 03:18:54;;;;;;;38.05;36.05;;;18.80;99.90;;;;;;5041593;28;20835;-71
2023/06/20 03:21:21;;;;;;;649.47;590.67;;;18.80;99.90;;;;;;5041625;28;20927;-71
2023/06/20 03:23:55;;;;;;;641.75;584.97;;;18.70;99.90;;;;;;5069334;28;20453;-71
2023/06/20 03:26:22;;;;;;;637.63;580.00;;;18.70;99.90;;;;;;5034812;28;20421;-71
2023/06/20 03:28:49;;;;;;;18.73;17.13;;;18.80;99.90;;;;;;5039188;28;20463;-71
2023/06/20 03:31:15;;;;;;;1.27;0.52;;;18.70;99.90;;;;;;5040761;28;20425;-71
2023/06/20 03:33:42;;;;;;;286.45;263.13;;;18.80;99.90;;;;;;5035047;28;20438;-71
2023/06/20 03:36:09;;;;;;;149.60;138.73;;;18.80;99.90;;;;;;5039720;28;20840;-71
2023/06/20 03:38:39;;;;;;;549.90;503.90;;;18.80;99.90;;;;;;5041184;28;20858;-72
2023/06/20 03:41:06;;;;;;;401.10;366.37;;;18.80;99.90;;;;;;5039611;28;20488;-71
2023/06/20 03:43:32;;;;;;;87.22;81.38;;;18.80;99.90;;;;;;5036003;28;20927;-72
2023/06/20 03:45:59;;;;;;;43.83;40.17;;;18.80;99.90;;;;;;5036733;28;20542;-71
2023/06/20 03:48:26;;;;;;;182.77;168.50;;;18.70;99.90;;;;;;5039633;28;20436;-71
2023/06/20 03:50:53;;;;;;;340.07;309.63;;;18.70;99.90;;;;;;5037451;28;20532;-71
2023/06/20 03:53:19;;;;;;;0.77;0.60;;;18.70;99.90;;;;;;5041686;28;20433;-71
2023/06/20 03:55:46;;;;;;;6.57;6.30;;;18.70;99.90;;;;;;5039280;28;20636;-71
2023/06/20 03:58:13;;;;;;;0.30;0.30;;;18.70;99.90;;;;;;5039372;28;20464;-71
2023/06/20 04:00:39;;;;;;;0.35;0.35;;;18.70;99.90;;;;;;5039495;28;20436;-71
2023/06/20 04:03:06;;;;;;;0.20;0.20;;;18.60;99.90;;;;;;5040428;28;20433;-71
2023/06/20 04:05:33;;;;;;;1.00;0.47;;;18.60;99.90;;;;;;5040341;28;20941;-71
2023/06/20 04:08:01;;;;;;;0.45;0.45;;;18.60;99.90;;;;;;5036015;28;20468;-71
2023/06/20 04:10:30;;;;;;;26.85;24.00;;;18.50;99.90;;;;;;5040146;28;20469;-71
2023/06/20 04:12:56;;;;;;;1.10;1.10;;;18.60;99.90;;;;;;5040767;28;20433;-71
2023/06/20 04:15:23;;;;;;;6.68;6.18;;;18.60;99.90;;;;;;5038767;28;20436;-71
2023/06/20 04:17:50;;;;;;;1.98;1.88;;;18.70;99.90;;;;;;5039428;28;20880;-71
2023/06/20 04:20:17;;;;;;;313.65;288.02;;;18.70;99.90;;;;;;5038431;28;20716;-71
2023/06/20 04:22:47;;;;;;;694.10;548.00;;;18.80;99.90;;;;;;5040658;28;20461;-71
2023/06/20 04:25:15;;;;;;;720.30;584.58;;;18.80;99.90;;;;;;5037980;28;20426;-71
2023/06/20 04:27:42;;;;;;;688.22;541.10;;;18.90;99.90;;;;;;5040039;28;20479;-71
2023/06/20 04:30:10;;;;;;;658.53;499.20;;;19.00;99.90;;;;;;5040853;28;20463;-71
2023/06/20 04:32:37;;;;;;;686.80;537.30;;;19.10;99.90;;;;;;5022050;28;20837;-71
2023/06/20 04:35:05;;;;;;;674.35;521.72;;;19.20;99.90;;;;;;5040267;28;20429;-71
2023/06/20 04:37:31;;;;;;;671.47;525.63;;;19.20;99.90;;;;;;5040217;28;20461;-71
2023/06/20 04:39:58;;;;;;;677.38;536.47;;;19.30;99.90;;;;;;5039627;28;20433;-71
2023/06/20 04:42:25;;;;;;;679.15;556.35;;;19.30;99.90;;;;;;5038444;28;20456;-71
2023/06/20 04:44:52;;;;;;;659.13;519.47;;;19.50;99.90;;;;;;5039512;28;20470;-71
2023/06/20 04:47:19;;;;;;;661.92;524.85;;;19.60;99.90;;;;;;5040056;28;20539;-71
2023/06/20 04:49:46;;;;;;;654.47;488.73;;;19.80;99.90;;;;;;5040141;28;20949;-71
2023/06/20 04:52:13;;;;;;;675.63;521.83;;;20.10;99.90;;;;;;5037849;28;20464;-71
2023/06/20 04:54:40;;;;;;;696.22;539.97;;;20.40;99.90;;;;;;5036474;28;20460;-71
2023/06/20 04:57:06;;;;;;;793.97;638.65;;;20.70;99.90;;;;;;5038272;28;20524;-72
2023/06/20 04:59:35;;;;;;;857.00;688.33;;;21.10;99.90;;;;;;5037479;28;20507;-72
2023/06/20 05:02:05;;;;;;;832.15;660.33;;;21.50;99.90;;;;;;5039279;28;21002;-72
2023/06/20 05:04:32;;;;;;;875.40;700.97;;;21.90;99.90;;;;;;5039995;28;20433;-72
2023/06/20 05:07:00;;;;;;;879.03;709.17;;;22.00;99.90;;;;;;5035583;28;20531;-72
2023/06/20 05:09:28;;;;;;;903.35;722.03;;;21.90;99.90;;;;;;5039800;28;20440;-72
2023/06/20 05:11:54;;;;;;;941.45;761.30;;;22.30;99.90;;;;;;5040040;28;20800;-72
2023/06/20 05:14:26;;;;;;;954.53;784.15;;;22.80;99.90;;;;;;5038273;28;20915;-72
2023/06/20 05:16:53;;;;;;;953.03;789.22;;;23.30;99.90;;;;;;5040602;28;20468;-72
2023/06/20 05:19:23;;;;;;;935.33;767.70;;;23.90;99.90;;;;;;5043591;28;20528;-72
2023/06/20 05:21:52;;;;;;;922.58;752.63;;;24.50;99.90;;;;;;5042960;28;20454;-73
2023/06/20 05:24:19;;;;;;;934.65;775.65;;;24.80;99.90;;;;;;5041806;28;20453;-73
2023/06/20 05:26:48;;;;;;;955.85;799.58;;;24.90;99.90;;;;;;5043282;28;20433;-73
2023/06/20 05:29:15;;;;;;;970.00;819.13;;;25.00;99.90;;;;;;5039812;28;20943;-73
2023/06/20 05:31:42;;;;;;;959.90;806.58;;;25.30;99.90;;;;;;5043340;28;20495;-73
2023/06/20 05:34:11;;;;;;;954.30;804.25;;;25.80;99.90;;;;;;5039699;28;20429;-73
2023/06/20 05:36:38;;;;;;;938.85;791.38;;;25.80;99.90;;;;;;5044147;28;20494;-73
2023/06/20 05:39:06;;;;;;;969.67;826.13;;;26.40;99.90;;;;;;5040231;28;20950;-73
2023/06/20 05:41:33;;;;;;;996.85;864.33;;;27.10;99.90;;;;;;5044326;28;20433;-73
2023/06/20 05:44:00;;;;;;;1036.10;921.17;;;27.60;99.90;;;;;;5043079;28;20529;-73
2023/06/20 05:46:26;;;;;;;981.35;856.25;;;28.10;99.90;;;;;;5031850;28;20495;-73
2023/06/20 05:48:53;;;;;;;1027.22;913.85;;;28.30;99.90;;;;;;5033350;28;20429;-74
2023/06/20 05:51:20;;;;;;;1048.55;933.92;;;28.40;99.90;;;;;;5042270;28;20489;-73
2023/06/20 05:53:47;;;;;;;980.45;865.30;;;28.90;99.90;;;;;;5039817;28;20453;-74
2023/06/20 05:56:16;;;;;;;1031.47;918.22;;;29.20;99.90;;;;;;5040403;28;20433;-74
2023/06/20 05:58:49;;;;;;;1081.70;964.70;;;29.30;99.90;;;;;;5036257;28;21176;-74
2023/06/20 06:01:16;;;;;;;1043.85;929.60;;;29.00;99.90;;;;;;5042242;28;20460;-74
2023/06/20 06:03:47;;;;;;;967.45;851.13;;;29.00;99.90;;;;;;5038169;28;22515;-74
2023/06/20 06:06:17;;;;;;;1044.68;930.78;;;28.90;99.90;;;;;;5043378;28;20433;-74
2023/06/20 06:08:44;;;;;;;1115.82;997.13;;;29.00;99.90;;;;;;5074295;28;20438;-74
2023/06/20 06:11:13;;;;;;;1061.55;947.03;;;29.60;99.90;;;;;;5047582;28;20431;-73
2023/06/20 06:13:43;;;;;;;979.55;871.53;;;30.00;99.90;;;;;;5040787;28;20938;-74
2023/06/20 06:16:10;;;;;;;935.47;825.08;;;29.70;99.90;;;;;;5041417;28;20555;-74
2023/06/20 06:18:37;;;;;;;1012.95;902.92;;;30.10;99.90;;;;;;5042069;28;20456;-74
2023/06/20 06:21:04;;;;;;;992.53;883.17;;;30.40;99.90;;;;;;5042552;28;20433;-72
2023/06/20 06:23:31;;;;;;;1037.70;926.20;;;30.70;99.90;;;;;;5042825;28;20900;-72
2023/06/20 06:26:00;;;;;;;1050.40;938.50;;;30.10;99.90;;;;;;5039869;28;20429;-73
2023/06/20 06:28:28;;;;;;;1072.97;959.95;;;30.10;99.90;;;;;;5040455;28;20433;-72
2023/06/20 06:30:58;;;;;;;1079.70;964.22;;;29.60;99.90;;;;;;5038801;28;20777;-73
2023/06/20 06:33:27;;;;;;;1100.80;984.30;;;29.80;99.90;;;;;;5037883;28;20436;-72
2023/06/20 06:35:55;;;;;;;1123.17;999.90;;;30.30;99.90;;;;;;5042318;28;20967;-74
2023/06/20 06:38:23;;;;;;;1122.53;999.90;;;29.90;99.90;;;;;;5041014;28;20431;-72
2023/06/20 06:40:54;;;;;;;1072.05;958.72;;;30.00;99.90;;;;;;5043567;28;20429;-72
2023/06/20 06:43:21;;;;;;;1168.05;999.90;;;29.70;99.90;;;;;;5042644;28;20435;-73
2023/06/20 06:45:48;;;;;;;1168.30;999.90;;;29.90;99.90;;;;;;5039809;28;20427;-73
2023/06/20 06:48:14;;;;;;;1145.72;999.90;;;29.70;99.90;;;;;;5039685;28;20919;-74
2023/06/20 06:50:43;;;;;;;1117.85;999.15;;;29.30;99.90;;;;;;5044147;28;20429;-73
2023/06/20 06:53:11;;;;;;;1000.50;890.60;;;29.50;99.90;;;;;;5071699;28;20831;-72
2023/06/20 06:55:38;;;;;;;1091.57;974.08;;;29.20;99.90;;;;;;5040835;28;20441;-73
2023/06/20 06:58:04;;;;;;;931.63;809.27;;;29.30;99.90;;;;;;5039519;28;20437;-73
2023/06/20 07:00:32;;;;;;;1106.90;990.23;;;29.30;99.90;;;;;;5041624;28;20482;-73
2023/06/20 07:02:59;;;;;;;1108.33;991.70;;;29.20;99.90;;;;;;5039039;28;20874;-73
2023/06/20 07:05:26;;;;;;;1170.18;999.90;;;29.30;99.90;;;;;;5072065;28;20445;-73
2023/06/20 07:07:59;;;;;;;1015.17;905.63;;;29.40;99.90;;;;;;5041755;28;20520;-73
2023/06/20 07:10:26;;;;;;;1084.60;969.92;;;29.90;99.90;;;;;;5040124;28;20489;-73
2023/06/20 07:13:00;;;;;;;378.77;345.85;;;29.80;99.90;;;;;;5041636;28;20428;-73
2023/06/20 07:15:27;;;;;;;1010.15;899.88;;;30.50;99.90;;;;;;5041954;28;20425;-74
2023/06/20 07:17:54;;;;;;;948.67;827.88;;;31.10;99.90;;;;;;5039373;28;20440;-74
2023/06/20 07:20:21;;;;;;;942.65;831.13;;;31.10;99.90;;;;;;5038261;28;20761;-73
2023/06/20 07:22:48;;;;;;;956.38;843.92;;;30.80;99.90;;;;;;5037134;28;20425;-72
2023/06/20 07:25:16;;;;;;;964.13;831.08;;;30.00;99.90;;;;;;5066739;28;20440;-74
2023/06/20 07:27:43;;;;;;;952.27;821.73;;;29.20;99.90;;;;;;5039413;28;20931;-73
2023/06/20 07:30:11;;;;;;;950.65;809.97;;;28.70;99.90;;;;;;5037761;28;20535;-73
2023/06/20 07:32:37;;;;;;;929.60;803.08;;;28.90;99.90;;;;;;5036777;28;20468;-72
2023/06/20 07:35:05;;;;;;;960.63;847.28;;;29.10;99.90;;;;;;5036182;28;20425;-73
2023/06/20 07:37:31;;;;;;;944.55;831.47;;;29.60;99.90;;;;;;5038135;28;20430;-73
2023/06/20 07:39:58;;;;;;;985.47;877.63;;;29.40;99.90;;;;;;5033779;28;20429;-73
2023/06/20 07:42:25;;;;;;;948.53;835.42;;;29.00;99.90;;;;;;5035441;28;20420;-74
2023/06/20 07:44:52;;;;;;;960.47;854.10;;;29.40;99.90;;;;;;5038333;28;20440;-74
2023/06/20 07:47:19;;;;;;;1014.00;904.55;;;30.10;99.90;;;;;;5035339;28;20436;-74
2023/06/20 07:49:46;;;;;;;1094.53;978.92;;;30.20;99.90;;;;;;5029681;28;20437;-74
2023/06/20 07:52:12;;;;;;;1169.93;999.90;;;30.00;99.90;;;;;;5036115;28;20864;-74
2023/06/20 07:54:39;;;;;;;1099.40;984.13;;;29.30;99.90;;;;;;5032997;28;20644;-73
2023/06/20 07:57:12;;;;;;;1057.40;944.55;;;28.90;99.90;;;;;;5033588;28;20439;-73
2023/06/20 07:59:38;;;;;;;1068.67;955.07;;;29.40;99.90;;;;;;5037262;28;20472;-73
2023/06/20 08:02:05;;;;;;;970.63;863.55;;;30.00;99.90;;;;;;5032097;28;20439;-74
2023/06/20 08:04:40;;;;;;;1015.38;905.70;;;30.20;99.90;;;;;;5029715;28;20744;-59
2023/06/20 08:07:07;;;;;;;1030.67;919.67;;;30.70;99.90;;;;;;5018284;28;20464;-59
2023/06/20 08:09:33;;;;;;;1023.33;913.15;;;31.10;99.90;;;;;;5012403;28;20683;-59
2023/06/20 08:12:00;;;;;;;1035.93;925.30;;;31.00;99.90;;;;;;5016644;28;20528;-59
2023/06/20 08:14:27;;;;;;;1029.85;919.53;;;31.40;99.90;;;;;;5030166;28;20442;-59
2023/06/20 08:16:54;;;;;;;1002.38;893.60;;;31.10;99.90;;;;;;5018602;28;20427;-59
2023/06/20 08:19:20;;;;;;;1016.93;907.80;;;31.20;99.90;;;;;;5013083;28;20436;-59
2023/06/20 08:21:48;;;;;;;993.75;884.53;;;31.30;99.90;;;;;;5018835;28;20431;-59
2023/06/20 08:24:15;;;;;;;974.17;866.90;;;31.50;99.90;;;;;;5014552;28;21034;-60
2023/06/20 08:26:42;;;;;;;1015.88;906.47;;;31.30;99.90;;;;;;5016290;28;20428;-59
2023/06/20 08:29:09;;;;;;;1048.07;937.30;;;31.50;99.90;;;;;;5019391;28;20562;-59
2023/06/20 08:31:39;;;;;;;991.25;883.17;;;31.30;99.90;;;;;;5019335;28;20467;-59
2023/06/20 08:34:06;;;;;;;1076.65;963.53;;;31.10;99.90;;;;;;5015302;28;20431;-59
2023/06/20 08:36:33;;;;;;;1188.22;999.90;;;31.40;99.90;;;;;;5019066;28;20439;-59
2023/06/20 08:39:01;;;;;;;679.75;616.60;;;31.30;99.90;;;;;;5017877;28;20463;-59
2023/06/20 08:41:28;;;;;;;1189.97;999.90;;;31.20;99.90;;;;;;5016495;28;20431;-60
2023/06/20 08:43:58;;;;;;;1159.63;999.90;;;31.40;99.90;;;;;;5015291;28;20926;-60
2023/06/20 08:46:25;;;;;;;179.27;163.60;;;31.80;99.90;;;;;;5016019;28;20943;-60
2023/06/20 08:48:52;;;;;;;279.58;254.07;;;32.00;99.90;;;;;;5032937;28;20463;-60
2023/06/20 08:51:22;;;;;;;745.83;678.13;;;32.10;99.90;;;;;;5019012;28;20432;-60
2023/06/20 08:53:53;;;;;;;258.05;233.88;;;32.20;99.90;;;;;;5030283;28;20431;-60
2023/06/20 08:56:23;;;;;;;1221.88;999.90;;;31.50;99.90;;;;;;5015111;28;20521;-59
2023/06/20 08:58:49;;;;;;;5.45;2.47;;;31.70;99.90;;;;;;5017605;28;20451;-60
2023/06/20 09:01:16;;;;;;;234.35;210.25;;;32.30;99.90;;;;;;5017768;28;20431;-60
2023/06/20 09:03:43;;;;;;;2.88;2.72;;;32.60;99.90;;;;;;5024064;28;20530;-60
2023/06/20 09:06:11;;;;;;;2.20;2.00;;;32.90;99.90;;;;;;5039464;28;20457;-60
2023/06/20 09:08:39;;;;;;;4.75;3.08;;;33.00;99.90;;;;;;5035257;28;20472;-60
2023/06/20 09:11:06;;;;;;;473.67;424.80;;;32.40;99.90;;;;;;5038119;28;20514;-60
2023/06/20 09:13:33;;;;;;;3.53;2.67;;;32.00;99.90;;;;;;5033611;28;20525;-60
2023/06/20 09:16:11;;;;;;;871.97;788.35;;;31.10;99.90;;;;;;5023957;28;20435;-60
2023/06/20 09:18:40;;;;;;;3.40;2.00;;;31.10;99.90;;;;;;5024589;28;20488;-60
2023/06/20 09:21:17;;;;;;;1281.80;999.90;;;30.60;99.90;;;;;;5023981;28;20504;-59
2023/06/20 09:23:44;;;;;;;1017.67;908.27;;;31.10;99.90;;;;;;5015318;28;20474;-60
2023/06/20 09:26:17;;;;;;;1006.70;897.78;;;31.50;99.90;;;;;;5020295;28;20437;-60
2023/06/20 09:28:45;;;;;;;1032.28;921.63;;;31.30;99.90;;;;;;5018752;28;20828;-59
2023/06/20 09:31:14;;;;;;;1049.20;937.28;;;30.90;99.90;;;;;;5026484;28;20882;-60
2023/06/20 09:33:41;;;;;;;969.97;838.03;;;30.90;99.90;;;;;;5019902;28;20434;-60
2023/06/20 09:36:16;;;;;;;1002.90;897.42;;;30.70;99.90;;;;;;5023721;28;20513;-61
2023/06/20 09:38:44;;;;;;;1136.53;999.90;;;31.40;99.90;;;;;;5020199;28;20443;-61
2023/06/20 09:41:17;;;;;;;1171.25;999.90;;;32.20;99.90;;;;;;5020383;28;20514;-60
2023/06/20 09:43:45;;;;;;;1116.23;999.90;;;33.20;99.90;;;;;;5020902;28;20435;-60
2023/06/20 09:46:20;;;;;;;1130.95;999.90;;;33.70;99.70;;;;;;5024000;28;22274;-61
2023/06/20 09:48:50;;;;;;;1160.68;999.90;;;33.80;97.80;;;;;;5019541;28;20503;-61
2023/06/20 09:51:17;;;;;;;1204.88;999.90;;;34.10;97.40;;;;;;5023561;28;20442;-61
2023/06/20 09:53:49;;;;;;;1189.75;999.90;;;33.60;97.00;;;;;;5022766;28;20438;-60
2023/06/20 09:56:19;;;;;;;1127.10;999.90;;;33.70;97.40;;;;;;5020539;28;21110;-60
2023/06/20 09:58:47;;;;;;;1204.93;999.90;;;34.00;97.10;;;;;;5000337;28;20488;-60
2023/06/20 10:01:15;;;;;;;1199.07;999.90;;;33.90;96.50;;;;;;5025634;28;20435;-60
2023/06/20 10:03:42;;;;;;;1152.40;999.90;;;34.00;96.60;;;;;;5026092;28;20510;-60
2023/06/20 10:06:10;;;;;;;1175.25;999.90;;;33.80;96.40;;;;;;5024113;28;20427;-60
2023/06/20 10:08:39;;;;;;;1180.85;999.90;;;33.40;95.50;;;;;;5020938;28;20443;-60
2023/06/20 10:11:05;;;;;;;1152.07;999.90;;;33.50;95.20;;;;;;5022494;28;20428;-60
2023/06/20 10:13:33;;;;;;;1157.15;999.90;;;32.70;95.20;;;;;;5026222;28;20430;-60
2023/06/20 10:16:01;;;;;;;1046.25;935.28;;;32.60;97.30;;;;;;5019991;28;20505;-60
2023/06/20 10:18:27;;;;;;;1195.75;999.90;;;32.30;96.10;;;;;;5022475;28;20443;-60
2023/06/20 10:20:54;;;;;;;1223.90;999.90;;;32.60;97.10;;;;;;5020599;28;20434;-60
2023/06/20 10:23:29;;;;;;;1238.32;999.90;;;33.00;96.80;;;;;;5025990;28;20521;-60
2023/06/20 10:26:03;;;;;;;1218.18;999.90;;;33.20;96.70;;;;;;5026255;28;20474;-60
2023/06/20 10:28:31;;;;;;;1228.87;999.90;;;32.70;96.40;;;;;;5024736;28;20999;-60
2023/06/20 10:31:01;;;;;;;1178.97;999.90;;;31.60;95.80;;;;;;5019452;28;21154;-60
2023/06/20 10:33:44;;;;;;;1223.72;999.90;;;31.80;97.20;;;;;;5023404;28;20427;-60
2023/06/20 10:36:13;;;;;;;1229.80;999.90;;;32.00;96.70;;;;;;5019697;28;20439;-60
2023/06/20 10:38:49;;;;;;;1237.57;999.90;;;32.20;96.80;;;;;;5021529;28;20510;-60
2023/06/20 10:41:23;;;;;;;1184.88;999.90;;;32.50;96.20;;;;;;5019415;28;20435;-60
2023/06/20 10:43:54;;;;;;;1242.32;999.90;;;32.80;95.90;;;;;;5023997;28;20475;-60
2023/06/20 10:46:36;;;;;;;1194.18;999.90;;;33.30;96.10;;;;;;5021475;28;20435;-60
2023/06/20 10:49:04;;;;;;;1209.80;999.90;;;33.50;95.10;;;;;;5020962;28;20437;-60
2023/06/20 10:51:41;;;;;;;1010.55;927.40;;;33.80;94.40;;;;;;5022812;28;20514;-61
2023/06/20 10:54:12;;;;;;;674.63;615.05;;;33.90;94.50;;;;;;5024670;28;20430;-61
2023/06/20 10:56:39;;;;;;;704.85;642.58;;;33.60;94.00;;;;;;5017641;28;20485;-60
2023/06/20 10:59:14;;;;;;;1199.75;999.90;;;33.90;93.90;;;;;;5014612;28;22325;-60
2023/06/20 11:01:41;;;;;;;1239.20;999.90;;;34.30;93.40;;;;;;5005284;28;20453;-61
2023/06/20 11:04:15;;;;;;;1216.07;999.90;;;34.40;92.80;;;;;;5000748;28;20989;-60
2023/06/20 11:06:43;;;;;;;1217.97;999.90;;;34.00;92.80;;;;;;5019169;28;20447;-60
2023/06/20 11:09:21;;;;;;;1235.88;999.90;;;33.90;93.60;;;;;;5019713;28;20442;-60
2023/06/20 11:11:47;;;;;;;1229.03;999.90;;;34.20;92.70;;;;;;5018031;28;20497;-60
2023/06/20 11:14:23;;;;;;;1208.93;999.90;;;34.10;92.80;;;;;;5021263;28;20904;-60
2023/06/20 11:16:51;;;;;;;1194.20;999.90;;;33.40;92.80;;;;;;5024339;28;20572;-60
2023/06/20 11:19:22;;;;;;;1184.10;999.90;;;32.90;93.70;;;;;;5022818;28;20461;-60
2023/06/20 11:22:04;;;;;;;1194.60;999.90;;;32.70;93.90;;;;;;5021741;28;20445;-60
2023/06/20 11:24:33;;;;;;;1181.15;999.90;;;33.10;94.20;;;;;;5023814;28;20868;-61
2023/06/20 11:27:13;;;;;;;1199.13;999.90;;;32.60;93.90;;;;;;5020757;28;20486;-60
2023/06/20 11:29:45;;;;;;;1198.80;999.90;;;32.10;94.50;;;;;;5020108;28;21220;-61
2023/06/20 11:32:12;;;;;;;1177.10;999.90;;;32.50;94.50;;;;;;5023684;28;20435;-61
2023/06/20 11:34:59;;;;;;;1187.27;999.90;;;33.40;94.20;;;;;;5023618;28;20442;-60
2023/06/20 11:37:26;;;;;;;1122.10;999.90;;;34.10;93.30;;;;;;5020398;28;20440;-61
2023/06/20 11:39:53;;;;;;;1171.72;999.90;;;33.90;92.50;;;;;;5019447;28;20492;-60
2023/06/20 11:42:20;;;;;;;1197.25;999.90;;;33.50;92.40;;;;;;5022688;28;20461;-60
2023/06/20 11:44:47;;;;;;;1040.38;955.20;;;33.20;92.90;;;;;;5020699;28;20433;-60
2023/06/20 11:47:15;;;;;;;1186.82;999.90;;;33.50;93.10;;;;;;5019228;28;20427;-60
2023/06/20 11:49:42;;;;;;;1194.60;999.90;;;33.90;93.30;;;;;;5005092;28;20517;-59
2023/06/20 11:52:09;;;;;;;1203.45;999.90;;;34.20;93.00;;;;;;5023755;28;20500;-60
2023/06/20 11:54:50;;;;;;;1170.25;999.90;;;33.70;92.30;;;;;;5018731;28;20438;-61
2023/06/20 11:57:26;;;;;;;1197.85;999.90;;;33.30;92.80;;;;;;4998910;28;20478;-60
2023/06/20 12:00:13;;;;;;;1158.00;999.90;;;32.90;93.00;;;;;;5018308;28;20442;-60
2023/06/20 12:02:41;;;;;;;1219.07;999.90;;;32.60;93.20;;;;;;5016284;28;20497;-60
2023/06/20 12:05:08;;;;;;;1217.70;999.90;;;33.20;92.70;;;;;;5021058;28;21090;-59
2023/06/20 12:07:52;;;;;;;1165.93;999.90;;;33.10;92.30;;;;;;5022063;28;20441;-60
2023/06/20 12:10:21;;;;;;;1208.65;999.90;;;32.70;92.20;;;;;;5021113;28;20518;-59
2023/06/20 12:12:48;;;;;;;1208.68;999.90;;;32.80;92.40;;;;;;5021997;28;20553;-60
2023/06/20 12:15:15;;;;;;;1207.70;999.90;;;32.40;92.50;;;;;;5021155;28;20438;-60
2023/06/20 12:17:41;;;;;;;1187.90;999.90;;;32.50;92.70;;;;;;5024497;28;20975;-60
2023/06/20 12:20:09;;;;;;;1208.93;999.90;;;32.70;92.90;;;;;;5020370;28;20431;-59
2023/06/20 12:22:57;;;;;;;1219.20;999.90;;;33.50;93.50;;;;;;5022265;28;20481;-60
2023/06/20 12:25:24;;;;;;;1221.00;999.90;;;34.30;92.10;;;;;;5022899;28;20461;-59